Time;durP1;ratioP1;P1;durP2;ratioP2;P2;SDS_P1;SDS_P2;PMS_P1;PMS_P2;Temp;Humidity;BMP_temperature;BMP_pressure;BME280_temperature;BME280_humidity;BME280_pressure;Samples;Min_cycle;Max_cycle;Signal;HPM_P1;HPM_P2
2021/03/13 00:00:15;;;;;;;38.47;35.53;;;7.40;99.90;;;;;;4992486;28;20140;-69
2021/03/13 00:02:45;;;;;;;29.92;28.05;;;7.40;99.90;;;;;;4994791;28;20053;-68
2021/03/13 00:05:35;;;;;;;28.95;26.65;;;7.40;99.90;;;;;;4992504;28;20061;-69
2021/03/13 00:08:01;;;;;;;49.97;46.63;;;7.40;99.90;;;;;;4991779;28;20145;-69
2021/03/13 00:10:27;;;;;;;121.90;114.68;;;7.40;99.90;;;;;;4999017;28;20050;-68
2021/03/13 00:12:53;;;;;;;32.88;30.33;;;7.50;99.90;;;;;;4998415;28;20046;-69
2021/03/13 00:15:20;;;;;;;48.40;45.35;;;7.50;99.90;;;;;;4998428;28;20968;-68
2021/03/13 00:17:48;;;;;;;77.47;72.75;;;7.50;99.90;;;;;;4999846;28;20053;-69
2021/03/13 00:20:17;;;;;;;43.00;39.88;;;7.50;99.90;;;;;;4997309;28;20543;-69
2021/03/13 00:22:44;;;;;;;41.70;39.08;;;7.50;99.90;;;;;;4997395;28;20062;-69
2021/03/13 00:25:11;;;;;;;30.27;28.02;;;7.50;99.90;;;;;;4998068;28;20189;-69
2021/03/13 00:27:47;;;;;;;29.67;27.48;;;7.50;99.90;;;;;;4998680;28;20050;-69
2021/03/13 00:30:29;;;;;;;29.42;27.42;;;7.50;99.90;;;;;;4997261;28;20141;-69
2021/03/13 00:33:01;;;;;;;32.33;30.02;;;7.50;99.90;;;;;;5001136;28;20059;-69
2021/03/13 00:35:29;;;;;;;39.15;36.63;;;7.40;99.90;;;;;;4995920;28;20065;-69
2021/03/13 00:37:56;;;;;;;90.90;86.20;;;7.40;99.90;;;;;;4998102;28;20107;-69
2021/03/13 00:40:24;;;;;;;43.50;40.78;;;7.40;99.90;;;;;;4998367;28;20054;-68
2021/03/13 00:42:51;;;;;;;42.63;40.33;;;7.40;99.90;;;;;;4996615;28;20605;-69
2021/03/13 00:45:20;;;;;;;33.28;31.35;;;7.40;99.90;;;;;;4998269;28;20056;-69
2021/03/13 00:47:47;;;;;;;48.10;45.40;;;7.40;99.90;;;;;;4995975;28;20154;-68
2021/03/13 00:50:15;;;;;;;42.00;39.08;;;7.30;99.90;;;;;;5001020;28;20053;-69
2021/03/13 00:52:42;;;;;;;33.58;31.48;;;7.30;99.90;;;;;;4994827;28;20041;-69
2021/03/13 00:55:09;;;;;;;38.53;36.08;;;7.30;99.90;;;;;;4998423;28;20056;-69
2021/03/13 00:57:36;;;;;;;39.80;37.38;;;7.30;99.90;;;;;;4993260;28;20055;-69
2021/03/13 01:00:07;;;;;;;40.75;38.17;;;7.30;99.90;;;;;;4996161;28;20057;-68
2021/03/13 01:02:34;;;;;;;46.75;43.75;;;7.30;99.90;;;;;;4994027;28;20097;-69
2021/03/13 01:05:00;;;;;;;58.17;54.90;;;7.30;99.90;;;;;;4998473;28;20128;-68
2021/03/13 01:07:27;;;;;;;41.72;39.10;;;7.30;99.90;;;;;;4998716;28;20421;-68
2021/03/13 01:09:53;;;;;;;92.68;87.80;;;7.20;99.90;;;;;;4998899;28;20056;-69
2021/03/13 01:12:20;;;;;;;46.58;43.70;;;7.20;99.90;;;;;;4997920;28;20058;-68
2021/03/13 01:14:46;;;;;;;39.60;37.22;;;7.10;99.90;;;;;;4998662;28;20413;-69
2021/03/13 01:17:12;;;;;;;60.33;56.88;;;7.10;99.90;;;;;;4996823;28;20042;-68
2021/03/13 01:19:39;;;;;;;27.63;25.60;;;7.00;99.90;;;;;;4998177;28;20137;-69
2021/03/13 01:22:05;;;;;;;32.15;30.20;;;6.90;99.90;;;;;;4999020;28;20065;-68
2021/03/13 01:24:32;;;;;;;18.85;17.73;;;6.90;99.90;;;;;;4999340;28;20071;-68
2021/03/13 01:26:58;;;;;;;25.17;23.75;;;6.80;99.90;;;;;;4996019;28;20054;-68
2021/03/13 01:29:24;;;;;;;21.08;19.23;;;6.80;99.90;;;;;;4996970;28;20457;-68
2021/03/13 01:31:50;;;;;;;23.80;22.23;;;6.70;99.90;;;;;;4998733;28;20053;-69
2021/03/13 01:34:16;;;;;;;28.30;26.45;;;6.70;99.90;;;;;;4999534;28;23156;-69
2021/03/13 01:36:42;;;;;;;56.80;53.88;;;6.70;99.90;;;;;;4998050;28;20049;-69
2021/03/13 01:39:09;;;;;;;33.42;31.55;;;6.60;99.90;;;;;;4999510;28;20115;-69
2021/03/13 01:41:36;;;;;;;20.85;19.70;;;6.60;99.90;;;;;;4996294;28;20161;-69
2021/03/13 01:44:02;;;;;;;18.17;16.83;;;6.60;99.90;;;;;;4998918;28;20049;-69
2021/03/13 01:46:29;;;;;;;20.52;19.27;;;6.50;99.90;;;;;;5000344;28;20060;-69
2021/03/13 01:48:55;;;;;;;29.27;27.17;;;6.50;99.90;;;;;;4998935;28;20085;-68
2021/03/13 01:51:22;;;;;;;15.70;14.55;;;6.50;99.90;;;;;;4996872;28;20060;-69
2021/03/13 01:53:51;;;;;;;14.43;13.52;;;6.50;99.90;;;;;;4999171;28;20655;-68
2021/03/13 01:56:18;;;;;;;17.55;16.45;;;6.50;99.90;;;;;;5002259;28;20048;-68
2021/03/13 01:58:44;;;;;;;15.25;14.25;;;6.40;99.90;;;;;;4999294;28;20168;-68
2021/03/13 02:01:19;;;;;;;18.88;17.88;;;6.40;99.90;;;;;;4998864;28;20054;-68
2021/03/13 02:03:45;;;;;;;15.82;15.00;;;6.40;99.90;;;;;;4994701;28;20507;-68
2021/03/13 02:06:12;;;;;;;15.88;14.68;;;6.30;99.90;;;;;;4997062;28;20145;-68
2021/03/13 02:08:56;;;;;;;17.20;16.00;;;6.30;99.90;;;;;;4998181;28;20051;-68
2021/03/13 02:11:33;;;;;;;16.27;15.38;;;6.30;99.90;;;;;;5093579;27;20481;-68
2021/03/13 02:14:12;;;;;;;14.57;13.48;;;6.30;99.90;;;;;;4995028;28;20058;-68
2021/03/13 02:16:47;;;;;;;14.30;13.55;;;6.20;99.90;;;;;;4998552;28;20054;-68
2021/03/13 02:19:50;;;;;;;19.17;18.08;;;6.20;99.90;;;;;;5003489;28;20142;-69
2021/03/13 02:22:19;;;;;;;15.40;14.50;;;6.20;99.90;;;;;;4997709;28;20054;-68
2021/03/13 02:25:09;;;;;;;17.10;15.85;;;6.20;99.90;;;;;;4999129;28;20112;-68
2021/03/13 02:27:51;;;;;;;15.45;14.32;;;6.20;99.90;;;;;;4997068;28;20136;-68
2021/03/13 02:30:21;;;;;;;14.02;12.88;;;6.20;99.90;;;;;;4997167;28;20046;-68
2021/03/13 02:33:19;;;;;;;14.60;13.70;;;6.20;99.90;;;;;;4994933;28;20125;-68
2021/03/13 02:35:56;;;;;;;21.90;20.77;;;6.20;99.90;;;;;;4997236;28;20058;-68
2021/03/13 02:38:47;;;;;;;16.75;15.68;;;6.20;99.90;;;;;;4995890;28;20062;-68
2021/03/13 02:41:24;;;;;;;22.20;20.73;;;6.20;99.90;;;;;;4989614;28;20052;-68
2021/03/13 02:43:57;;;;;;;40.92;38.88;;;6.20;99.90;;;;;;4999782;28;20061;-68
2021/03/13 02:46:25;;;;;;;19.10;18.15;;;6.20;99.90;;;;;;4998546;28;20069;-68
2021/03/13 02:48:53;;;;;;;24.98;23.55;;;6.20;99.90;;;;;;4996848;28;20141;-68
2021/03/13 02:51:24;;;;;;;19.47;18.47;;;6.20;99.90;;;;;;4996106;28;20073;-68
2021/03/13 02:53:52;;;;;;;34.80;33.05;;;6.30;99.90;;;;;;4995542;28;20320;-68
2021/03/13 02:56:19;;;;;;;15.52;14.63;;;6.20;99.90;;;;;;4997330;28;20353;-68
2021/03/13 02:58:54;;;;;;;36.20;34.22;;;6.20;99.90;;;;;;4997409;28;20046;-68
2021/03/13 03:01:22;;;;;;;17.45;16.48;;;6.20;99.90;;;;;;4998506;28;20047;-68
2021/03/13 03:03:50;;;;;;;34.95;33.15;;;6.20;99.90;;;;;;4996622;28;20077;-68
2021/03/13 03:06:21;;;;;;;24.30;22.88;;;6.20;99.90;;;;;;4995098;28;20053;-68
2021/03/13 03:08:48;;;;;;;19.40;18.35;;;6.20;99.90;;;;;;5003071;28;20147;-68
2021/03/13 03:11:19;;;;;;;53.85;50.97;;;6.20;99.90;;;;;;4996665;28;20056;-68
2021/03/13 03:13:47;;;;;;;33.63;31.77;;;6.30;99.90;;;;;;5092480;27;20481;-68
2021/03/13 03:16:13;;;;;;;30.27;28.42;;;6.30;99.90;;;;;;4997982;28;20046;-67
2021/03/13 03:18:41;;;;;;;35.95;33.92;;;6.30;99.90;;;;;;4997023;28;20050;-68
2021/03/13 03:21:08;;;;;;;20.88;19.75;;;6.30;99.90;;;;;;4995882;28;20061;-68
2021/03/13 03:23:38;;;;;;;26.55;25.13;;;6.30;99.90;;;;;;4995762;28;20058;-68
2021/03/13 03:26:05;;;;;;;66.32;61.83;;;6.30;99.90;;;;;;4997781;28;20057;-68
2021/03/13 03:28:31;;;;;;;43.80;41.47;;;6.30;99.90;;;;;;4996334;28;20163;-68
2021/03/13 03:30:59;;;;;;;52.08;49.10;;;6.30;99.90;;;;;;4997452;28;20063;-68
2021/03/13 03:33:26;;;;;;;50.67;48.00;;;6.30;99.90;;;;;;5092041;27;20060;-68
2021/03/13 03:35:52;;;;;;;63.67;60.45;;;6.40;99.90;;;;;;4997484;28;20128;-68
2021/03/13 03:38:18;;;;;;;37.35;35.45;;;6.40;99.90;;;;;;4995491;28;20037;-68
2021/03/13 03:40:45;;;;;;;68.55;64.85;;;6.40;99.90;;;;;;4991201;28;20162;-68
2021/03/13 03:43:39;;;;;;;83.88;79.78;;;6.40;99.90;;;;;;5092447;27;20053;-68
2021/03/13 03:46:06;;;;;;;45.03;42.53;;;6.40;99.90;;;;;;4996412;28;20130;-68
2021/03/13 03:48:34;;;;;;;47.55;44.83;;;6.50;99.90;;;;;;4998563;28;20046;-68
2021/03/13 03:51:07;;;;;;;44.35;42.22;;;6.50;99.90;;;;;;4996859;28;20146;-68
2021/03/13 03:53:36;;;;;;;42.40;40.22;;;6.50;99.90;;;;;;4993505;28;20054;-68
2021/03/13 03:56:02;;;;;;;;;;;6.50;99.90;;;;;;4996266;28;20460;-67
2021/03/13 03:58:34;;;;;;;40.13;37.78;;;6.50;99.90;;;;;;4996481;28;19940;-68
2021/03/13 04:01:01;;;;;;;36.67;34.47;;;6.50;99.90;;;;;;4996981;28;20078;-68
2021/03/13 04:03:28;;;;;;;40.92;38.92;;;6.50;99.90;;;;;;5000580;28;20153;-67
2021/03/13 04:05:56;;;;;;;28.17;26.48;;;6.60;99.90;;;;;;4993629;28;20057;-67
2021/03/13 04:08:23;;;;;;;97.13;92.32;;;6.60;99.90;;;;;;4997708;28;20136;-68
2021/03/13 04:10:52;;;;;;;44.22;42.08;;;6.50;99.90;;;;;;4992228;28;20083;-67
2021/03/13 04:13:20;;;;;;;73.43;69.18;;;6.60;99.90;;;;;;4993239;28;20054;-68
2021/03/13 04:15:48;;;;;;;52.40;49.90;;;6.60;99.90;;;;;;4995742;28;20064;-68
2021/03/13 04:18:15;;;;;;;80.20;76.15;;;6.60;99.90;;;;;;5086805;27;20185;-68
2021/03/13 04:20:46;;;;;;;136.57;129.45;;;6.60;99.90;;;;;;4996008;28;20651;-69
2021/03/13 04:23:15;;;;;;;50.38;47.70;;;6.60;99.90;;;;;;5094496;27;20525;-70
2021/03/13 04:25:42;;;;;;;;;;;6.60;99.90;;;;;;4996865;28;20084;-67
2021/03/13 04:28:09;;;;;;;157.95;149.50;;;6.60;99.90;;;;;;4999223;28;19929;-68
2021/03/13 04:30:35;;;;;;;68.03;64.70;;;6.60;99.90;;;;;;4997605;28;20091;-68
2021/03/13 04:33:15;;;;;;;26.83;25.35;;;6.60;99.90;;;;;;4997400;28;20060;-68
2021/03/13 04:35:42;;;;;;;44.00;41.65;;;6.60;99.90;;;;;;4996358;28;21010;-68
2021/03/13 04:38:10;;;;;;;74.53;70.80;;;6.60;99.90;;;;;;4994931;28;20046;-68
2021/03/13 04:40:37;;;;;;;101.97;96.30;;;6.60;99.90;;;;;;5092950;27;20050;-68
2021/03/13 04:43:03;;;;;;;92.57;87.18;;;6.70;99.90;;;;;;4993781;28;20060;-68
2021/03/13 04:45:31;;;;;;;55.08;52.45;;;6.70;99.90;;;;;;4996349;28;20054;-68
2021/03/13 04:47:58;;;;;;;53.88;50.88;;;6.70;99.90;;;;;;4996835;28;20078;-68
2021/03/13 04:50:24;;;;;;;34.35;32.50;;;6.80;99.90;;;;;;4996426;28;20429;-68
2021/03/13 04:52:50;;;;;;;126.05;119.15;;;6.80;99.90;;;;;;4998927;28;20468;-68
2021/03/13 04:55:17;;;;;;;176.32;166.07;;;6.80;99.90;;;;;;4996210;28;20124;-68
2021/03/13 04:57:44;;;;;;;83.93;79.65;;;6.80;99.90;;;;;;5001267;28;20052;-68
2021/03/13 05:00:13;;;;;;;97.10;91.82;;;6.90;99.90;;;;;;5000465;28;20514;-68
2021/03/13 05:02:40;;;;;;;118.95;112.78;;;6.80;99.90;;;;;;4996990;28;20046;-68
2021/03/13 05:05:07;;;;;;;46.60;43.72;;;6.80;99.90;;;;;;4997485;28;21380;-68
2021/03/13 05:07:34;;;;;;;189.15;177.70;;;6.90;99.90;;;;;;4998733;28;20068;-68
2021/03/13 05:10:00;;;;;;;34.67;32.90;;;6.90;99.90;;;;;;4999152;28;20145;-69
2021/03/13 05:12:26;;;;;;;63.08;59.72;;;6.90;99.90;;;;;;4998518;28;20052;-68
2021/03/13 05:14:52;;;;;;;43.65;41.53;;;6.90;99.90;;;;;;4994895;28;20136;-68
2021/03/13 05:17:19;;;;;;;40.78;38.50;;;6.90;99.90;;;;;;5002314;28;20057;-68
2021/03/13 05:19:46;;;;;;;49.38;46.92;;;6.90;99.90;;;;;;5002550;28;20471;-68
2021/03/13 05:22:12;;;;;;;92.28;87.45;;;6.90;99.90;;;;;;4996325;28;20049;-68
2021/03/13 05:24:38;;;;;;;65.75;62.30;;;6.90;99.90;;;;;;4996385;28;20643;-68
2021/03/13 05:27:05;;;;;;;63.55;60.28;;;6.90;99.90;;;;;;4994496;28;20081;-68
2021/03/13 05:29:31;;;;;;;69.13;65.78;;;6.90;99.90;;;;;;4999758;28;20053;-68
2021/03/13 05:31:57;;;;;;;102.63;96.97;;;6.90;99.90;;;;;;4996457;28;20049;-68
2021/03/13 05:34:24;;;;;;;309.90;290.65;;;6.90;99.90;;;;;;5001381;28;20599;-68
2021/03/13 05:36:50;;;;;;;376.45;351.48;;;6.90;99.90;;;;;;4999372;28;20083;-69
2021/03/13 05:39:16;;;;;;;465.75;434.55;;;6.90;99.90;;;;;;4998952;28;20081;-69
2021/03/13 05:41:44;;;;;;;297.48;278.90;;;6.90;99.90;;;;;;4998164;28;20496;-69
2021/03/13 05:44:12;;;;;;;396.80;369.08;;;6.80;99.90;;;;;;4999277;28;20060;-68
2021/03/13 05:46:42;;;;;;;115.35;109.00;;;6.70;99.90;;;;;;4996985;28;20125;-69
2021/03/13 05:49:10;;;;;;;313.95;295.13;;;6.70;99.90;;;;;;4998317;28;20500;-68
2021/03/13 05:51:55;;;;;;;260.52;242.82;;;6.60;99.90;;;;;;4995074;28;20061;-68
2021/03/13 05:54:22;;;;;;;194.05;183.02;;;6.50;99.90;;;;;;5094383;27;20050;-68
2021/03/13 05:56:48;;;;;;;252.27;237.73;;;6.40;99.90;;;;;;5003580;28;20155;-68
2021/03/13 05:59:14;;;;;;;105.35;99.90;;;6.30;99.90;;;;;;5006194;28;20471;-68
2021/03/13 06:01:42;;;;;;;204.05;192.98;;;6.20;99.90;;;;;;5004121;28;20049;-68
2021/03/13 06:04:23;;;;;;;108.35;102.90;;;6.10;99.90;;;;;;5005368;28;20045;-68
2021/03/13 06:06:51;;;;;;;74.90;71.32;;;6.10;99.90;;;;;;5003521;28;20083;-68
2021/03/13 06:09:19;;;;;;;64.03;61.10;;;6.10;99.90;;;;;;5004251;28;20133;-68
2021/03/13 06:11:45;;;;;;;40.15;38.35;;;6.10;99.90;;;;;;5001860;28;20140;-68
2021/03/13 06:14:11;;;;;;;70.38;67.03;;;6.10;99.90;;;;;;5002284;28;20046;-68
2021/03/13 06:16:38;;;;;;;90.85;86.10;;;6.10;99.90;;;;;;5003785;28;20141;-68
2021/03/13 06:19:05;;;;;;;182.70;173.18;;;6.10;99.90;;;;;;5000613;28;20394;-68
2021/03/13 06:21:39;;;;;;;66.60;63.53;;;6.10;99.90;;;;;;5010210;28;20042;-68
2021/03/13 06:24:12;;;;;;;47.55;44.95;;;6.10;99.90;;;;;;5093675;27;20064;-68
2021/03/13 06:26:50;;;;;;;158.45;151.05;;;6.10;99.90;;;;;;5006202;28;20064;-68
2021/03/13 06:29:17;;;;;;;47.17;44.25;;;6.10;99.90;;;;;;5014251;28;20058;-69
2021/03/13 06:31:43;;;;;;;61.95;58.47;;;6.10;99.90;;;;;;5012804;28;20056;-68
2021/03/13 06:34:25;;;;;;;19.08;17.83;;;6.10;99.90;;;;;;5013342;28;20132;-68
2021/03/13 06:37:25;;;;;;;61.65;58.17;;;6.20;99.90;;;;;;5002120;28;20050;-68
2021/03/13 06:39:56;;;;;;;20.90;19.75;;;6.20;99.90;;;;;;5016596;28;20129;-68
2021/03/13 06:42:29;;;;;;;30.20;28.58;;;6.30;99.90;;;;;;4988369;28;20341;-68
2021/03/13 06:45:00;;;;;;;21.83;20.67;;;6.30;99.90;;;;;;4996741;28;20137;-68
2021/03/13 06:47:34;;;;;;;77.60;73.57;;;6.40;99.90;;;;;;4997288;28;20054;-68
2021/03/13 06:50:13;;;;;;;17.65;16.67;;;6.40;99.90;;;;;;5000760;28;20169;-68
2021/03/13 06:52:44;;;;;;;24.98;23.42;;;6.50;99.90;;;;;;5000950;28;20054;-68
2021/03/13 06:55:22;;;;;;;160.25;150.38;;;6.50;99.90;;;;;;5000516;28;20507;-68
2021/03/13 06:57:49;;;;;;;32.42;30.27;;;6.60;99.90;;;;;;4998893;28;20435;-68
2021/03/13 07:00:31;;;;;;;66.13;62.22;;;6.60;99.90;;;;;;5002392;28;20049;-68
2021/03/13 07:03:14;;;;;;;73.95;69.88;;;6.60;99.90;;;;;;5001401;28;20046;-68
2021/03/13 07:05:45;;;;;;;27.67;25.45;;;6.60;99.90;;;;;;5010118;28;20046;-68
2021/03/13 07:08:31;;;;;;;25.20;23.40;;;6.70;99.90;;;;;;5004263;28;20133;-68
2021/03/13 07:11:06;;;;;;;22.13;20.45;;;6.70;99.90;;;;;;5004689;28;20458;-69
2021/03/13 07:13:38;;;;;;;92.28;86.32;;;6.70;99.90;;;;;;5004174;28;20512;-68
2021/03/13 07:16:23;;;;;;;20.08;18.63;;;6.70;99.90;;;;;;5000359;28;20103;-68
2021/03/13 07:18:52;;;;;;;20.77;19.30;;;6.80;99.90;;;;;;5006633;28;20095;-68
2021/03/13 07:21:20;;;;;;;18.77;17.38;;;6.80;99.90;;;;;;5016586;28;20052;-68
2021/03/13 07:24:02;;;;;;;19.85;18.65;;;6.80;99.90;;;;;;4988193;28;20181;-68
2021/03/13 07:26:40;;;;;;;36.50;33.80;;;6.80;99.90;;;;;;4995277;28;20549;-68
2021/03/13 07:29:11;;;;;;;16.85;15.75;;;6.90;99.90;;;;;;4994764;28;20057;-68
2021/03/13 07:31:40;;;;;;;32.65;30.77;;;6.90;99.90;;;;;;4999459;28;20045;-68
2021/03/13 07:34:18;;;;;;;32.60;30.33;;;7.00;99.90;;;;;;4999845;28;20042;-68
2021/03/13 07:36:51;;;;;;;78.50;74.25;;;7.00;99.90;;;;;;5005459;28;20714;-68
2021/03/13 07:39:21;;;;;;;55.22;51.85;;;7.10;99.90;;;;;;5033481;28;20054;-68
2021/03/13 07:42:18;;;;;;;42.22;39.60;;;7.20;99.90;;;;;;5002325;28;20095;-68
2021/03/13 07:44:46;;;;;;;26.25;24.35;;;7.40;99.90;;;;;;5001547;28;20060;-68
2021/03/13 07:47:18;;;;;;;74.83;69.70;;;7.50;99.90;;;;;;5009524;28;20132;-68
2021/03/13 07:49:45;;;;;;;55.92;52.50;;;7.50;99.90;;;;;;5001704;28;20308;-68
2021/03/13 07:52:13;;;;;;;80.72;75.40;;;7.50;99.90;;;;;;5004529;28;20049;-68
2021/03/13 07:54:52;;;;;;;19.90;18.13;;;7.40;99.90;;;;;;4996815;28;20129;-68
2021/03/13 07:57:20;;;;;;;48.70;45.22;;;7.30;99.90;;;;;;4999124;28;20591;-68
2021/03/13 07:59:48;;;;;;;23.27;21.50;;;7.20;99.90;;;;;;5002387;28;20042;-68
2021/03/13 08:02:30;;;;;;;68.07;63.50;;;7.20;99.90;;;;;;5021234;28;20531;-68
2021/03/13 08:05:17;;;;;;;28.98;27.00;;;7.30;99.90;;;;;;4996698;28;20488;-68
2021/03/13 08:08:03;;;;;;;42.75;39.95;;;7.30;99.90;;;;;;5011190;28;20147;-68
2021/03/13 08:10:59;;;;;;;23.38;21.30;;;7.30;99.90;;;;;;5003660;28;20140;-68
2021/03/13 08:13:28;;;;;;;19.42;17.63;;;7.30;99.90;;;;;;4997745;28;20157;-68
2021/03/13 08:16:08;;;;;;;45.80;42.45;;;7.40;99.90;;;;;;4998331;28;20060;-68
2021/03/13 08:18:40;;;;;;;78.10;73.03;;;7.40;99.90;;;;;;4999630;28;20054;-68
2021/03/13 08:21:21;;;;;;;180.38;170.18;;;7.50;99.90;;;;;;4988203;28;20137;-68
2021/03/13 08:23:58;;;;;;;160.30;150.65;;;7.60;99.90;;;;;;4988835;28;20098;-68
2021/03/13 08:26:34;;;;;;;160.18;151.73;;;7.60;99.90;;;;;;4992282;28;20066;-68
2021/03/13 08:29:06;;;;;;;76.68;72.45;;;7.60;99.90;;;;;;4989380;28;20047;-68
2021/03/13 08:31:39;;;;;;;222.98;208.23;;;7.70;99.90;;;;;;4996646;28;20512;-68
2021/03/13 08:34:06;;;;;;;163.77;154.30;;;7.70;99.90;;;;;;4997854;28;20123;-68
2021/03/13 08:36:49;;;;;;;75.43;70.95;;;7.80;99.90;;;;;;5096973;27;20149;-68
2021/03/13 08:39:34;;;;;;;139.25;131.50;;;7.90;99.90;;;;;;4998305;28;20077;-68
2021/03/13 08:42:01;;;;;;;128.07;121.15;;;7.90;99.90;;;;;;4992255;28;20056;-68
2021/03/13 08:44:30;;;;;;;109.60;103.38;;;7.90;99.90;;;;;;4993952;28;20090;-68
2021/03/13 08:46:59;;;;;;;50.35;47.45;;;7.90;99.90;;;;;;4989645;28;20054;-68
2021/03/13 08:49:27;;;;;;;37.28;34.55;;;7.90;99.90;;;;;;4991485;28;20058;-68
2021/03/13 08:52:03;;;;;;;49.88;46.70;;;8.00;99.90;;;;;;4980794;28;20562;-68
2021/03/13 08:54:42;;;;;;;135.73;127.03;;;8.00;99.90;;;;;;5103061;27;20046;-68
2021/03/13 08:57:17;;;;;;;76.25;72.05;;;7.90;99.90;;;;;;5007639;28;20085;-68
2021/03/13 08:59:55;;;;;;;188.13;177.07;;;7.80;99.90;;;;;;5015230;28;20107;-68
2021/03/13 09:02:32;;;;;;;97.43;91.65;;;7.80;99.90;;;;;;4998687;28;20050;-68
2021/03/13 09:05:17;;;;;;;124.20;116.30;;;7.70;99.90;;;;;;5004826;28;20503;-68
2021/03/13 09:07:48;;;;;;;128.30;120.28;;;7.70;99.90;;;;;;5002221;28;20453;-68
2021/03/13 09:10:15;;;;;;;222.18;209.82;;;7.70;99.90;;;;;;5001067;28;20046;-68
2021/03/13 09:12:44;;;;;;;181.73;170.27;;;7.70;99.90;;;;;;4995881;28;20060;-68
2021/03/13 09:15:11;;;;;;;65.18;61.15;;;7.70;99.90;;;;;;5019346;28;20080;-68
2021/03/13 09:17:38;;;;;;;158.13;148.88;;;7.80;99.90;;;;;;5002537;28;20508;-68
2021/03/13 09:20:09;;;;;;;49.88;46.20;;;7.80;99.90;;;;;;5006587;28;20050;-68
2021/03/13 09:22:41;;;;;;;44.35;41.28;;;7.90;99.90;;;;;;5000517;28;20103;-68
2021/03/13 09:25:13;;;;;;;84.78;79.28;;;8.00;99.90;;;;;;5002729;28;20396;-68
2021/03/13 09:27:40;;;;;;;167.70;157.45;;;8.00;99.90;;;;;;5000182;28;20409;-68
2021/03/13 09:30:09;;;;;;;160.65;151.18;;;8.20;99.90;;;;;;5001617;28;20045;-69
2021/03/13 09:32:42;;;;;;;87.82;82.18;;;8.20;99.90;;;;;;5009261;28;20058;-68
2021/03/13 09:35:09;;;;;;;43.22;39.67;;;8.30;99.90;;;;;;4993101;28;20131;-68
2021/03/13 09:37:36;;;;;;;60.20;55.70;;;8.30;99.90;;;;;;4997057;28;20046;-68
2021/03/13 09:40:09;;;;;;;86.75;81.07;;;8.30;99.90;;;;;;4995210;28;20058;-68
2021/03/13 09:42:36;;;;;;;83.97;78.13;;;8.40;99.90;;;;;;5006407;28;20056;-68
2021/03/13 09:45:08;;;;;;;38.10;34.55;;;8.40;99.90;;;;;;5002649;28;20138;-68
2021/03/13 09:47:40;;;;;;;62.95;58.22;;;8.40;99.90;;;;;;5006955;28;20137;-68
2021/03/13 09:50:17;;;;;;;345.98;324.92;;;8.40;99.90;;;;;;5027137;28;20054;-68
2021/03/13 09:52:45;;;;;;;69.78;64.82;;;8.50;99.90;;;;;;5039530;28;20051;-68
2021/03/13 09:55:25;;;;;;;497.83;463.30;;;8.50;99.90;;;;;;5023436;27;20069;-68
2021/03/13 09:57:54;;;;;;;892.92;813.42;;;8.70;99.90;;;;;;4992338;28;20070;-68
2021/03/13 10:00:23;;;;;;;593.65;554.75;;;8.80;99.90;;;;;;5004590;28;20049;-68
2021/03/13 10:02:51;;;;;;;548.80;510.55;;;9.10;99.90;;;;;;5004562;28;20408;-69
2021/03/13 10:05:19;;;;;;;406.10;383.48;;;9.40;99.90;;;;;;5003632;28;20053;-68
2021/03/13 10:07:48;;;;;;;573.00;531.93;;;9.50;99.90;;;;;;5003097;28;20411;-69
2021/03/13 10:10:22;;;;;;;537.33;502.33;;;9.50;99.90;;;;;;5002154;28;20408;-68
2021/03/13 10:12:55;;;;;;;502.52;466.13;;;9.60;99.90;;;;;;4993183;28;20500;-68
2021/03/13 10:15:24;;;;;;;283.15;265.23;;;9.70;99.90;;;;;;4989803;28;20420;-68
2021/03/13 10:17:52;;;;;;;549.53;511.52;;;9.70;99.90;;;;;;4990000;28;20496;-69
2021/03/13 10:20:20;;;;;;;398.35;372.60;;;9.60;99.90;;;;;;4986380;28;20150;-69
2021/03/13 10:22:47;;;;;;;321.83;302.38;;;9.60;99.90;;;;;;5087343;27;20048;-68
2021/03/13 10:25:13;;;;;;;399.95;372.85;;;9.70;99.90;;;;;;4984874;28;20064;-69
2021/03/13 10:27:40;;;;;;;338.40;314.50;;;9.70;99.90;;;;;;4987332;28;20060;-69
2021/03/13 10:30:08;;;;;;;315.40;296.50;;;9.70;99.90;;;;;;4992114;28;20054;-68
2021/03/13 10:32:36;;;;;;;190.38;180.02;;;9.60;99.90;;;;;;5002184;28;20141;-68
2021/03/13 10:35:21;;;;;;;270.30;253.00;;;9.60;99.90;;;;;;5002188;28;20481;-68
2021/03/13 10:37:56;;;;;;;170.10;160.73;;;9.50;99.90;;;;;;4999439;28;20053;-68
2021/03/13 10:40:43;;;;;;;164.77;156.15;;;9.40;99.90;;;;;;5003799;28;20042;-68
2021/03/13 10:43:12;;;;;;;471.42;438.08;;;9.40;99.90;;;;;;5005079;28;20077;-69
2021/03/13 10:45:40;;;;;;;119.57;112.97;;;9.30;99.90;;;;;;5011132;28;20461;-69
2021/03/13 10:48:11;;;;;;;345.73;322.48;;;9.30;99.90;;;;;;4999892;28;20107;-68
2021/03/13 10:50:39;;;;;;;321.58;301.35;;;9.20;99.90;;;;;;5002004;28;20132;-68
2021/03/13 10:53:33;;;;;;;161.05;151.05;;;9.20;99.90;;;;;;4999530;28;20106;-68
2021/03/13 10:56:04;;;;;;;166.63;155.43;;;9.10;99.90;;;;;;5017530;28;20077;-68
2021/03/13 10:58:36;;;;;;;67.13;62.92;;;9.00;99.90;;;;;;4999475;28;20159;-68
2021/03/13 11:01:07;;;;;;;376.02;347.88;;;9.00;99.90;;;;;;5004897;28;20148;-68
2021/03/13 11:03:34;;;;;;;521.25;483.10;;;9.40;99.90;;;;;;5004599;28;20122;-68
2021/03/13 11:06:00;;;;;;;153.73;145.05;;;9.70;99.90;;;;;;5006203;28;20638;-69
2021/03/13 11:08:28;;;;;;;386.77;358.60;;;9.80;99.90;;;;;;5004998;28;20056;-69
2021/03/13 11:10:56;;;;;;;254.52;238.07;;;9.60;99.90;;;;;;5003043;28;20141;-69
2021/03/13 11:13:25;;;;;;;201.93;189.77;;;9.40;99.90;;;;;;5000883;28;20165;-68
2021/03/13 11:15:52;;;;;;;240.48;225.43;;;9.30;99.90;;;;;;5003443;28;20514;-68
2021/03/13 11:18:19;;;;;;;203.45;191.15;;;9.50;99.90;;;;;;5002914;28;20144;-69
2021/03/13 11:20:47;;;;;;;219.23;206.30;;;9.90;99.90;;;;;;5003110;28;20059;-69
2021/03/13 11:23:14;;;;;;;115.95;109.30;;;10.10;99.90;;;;;;4999949;28;20038;-69
2021/03/13 11:25:41;;;;;;;192.98;181.98;;;10.10;99.90;;;;;;5003296;28;20553;-68
2021/03/13 11:28:08;;;;;;;227.50;213.85;;;10.10;99.90;;;;;;5003485;28;20499;-68
2021/03/13 11:30:36;;;;;;;143.13;135.05;;;10.00;99.90;;;;;;5003102;28;20136;-69
2021/03/13 11:33:03;;;;;;;105.45;99.93;;;10.00;99.90;;;;;;5003884;28;20046;-69
2021/03/13 11:35:30;;;;;;;340.48;315.48;;;10.00;99.90;;;;;;5001955;28;20130;-68
2021/03/13 11:37:56;;;;;;;184.88;173.75;;;9.90;99.90;;;;;;5002073;28;20042;-68
2021/03/13 11:40:24;;;;;;;185.57;174.88;;;9.70;99.90;;;;;;5008815;28;20420;-68
2021/03/13 11:42:55;;;;;;;478.58;445.50;;;9.60;99.90;;;;;;5000011;28;20546;-69
2021/03/13 11:45:22;;;;;;;144.48;136.70;;;9.50;99.90;;;;;;5007874;28;20042;-69
2021/03/13 11:47:49;;;;;;;125.90;118.55;;;9.30;99.90;;;;;;5002627;28;20052;-69
2021/03/13 11:50:18;;;;;;;464.73;429.40;;;9.20;99.90;;;;;;5004184;28;20072;-69
2021/03/13 11:52:45;;;;;;;451.52;416.50;;;9.20;99.90;;;;;;4999760;28;20479;-69
2021/03/13 11:55:12;;;;;;;67.95;64.28;;;9.20;99.90;;;;;;5003722;28;20140;-69
2021/03/13 11:57:39;;;;;;;58.22;55.20;;;9.20;99.90;;;;;;5004493;28;20096;-69
2021/03/13 12:00:08;;;;;;;246.40;230.18;;;9.20;99.90;;;;;;4993094;28;20157;-69
2021/03/13 12:02:34;;;;;;;;;;;9.00;99.90;;;;;;5006703;28;20069;-68
2021/03/13 12:05:01;;;;;;;297.95;278.65;;;8.70;99.90;;;;;;5009275;28;19925;-69
2021/03/13 12:07:27;;;;;;;268.83;252.15;;;8.70;99.90;;;;;;5003564;28;20061;-68
2021/03/13 12:09:54;;;;;;;136.10;128.68;;;9.00;99.90;;;;;;5006856;28;20060;-68
2021/03/13 12:12:21;;;;;;;109.25;103.60;;;9.30;99.90;;;;;;5008909;28;20153;-68
2021/03/13 12:14:48;;;;;;;106.60;101.07;;;9.50;99.90;;;;;;5004544;28;20520;-69
2021/03/13 12:17:15;;;;;;;243.10;226.65;;;9.80;99.90;;;;;;5010138;28;20677;-69
2021/03/13 12:19:42;;;;;;;266.05;249.23;;;9.90;99.90;;;;;;5004090;28;20455;-69
2021/03/13 12:22:09;;;;;;;263.40;247.40;;;10.10;99.90;;;;;;5001499;28;20123;-69
2021/03/13 12:24:35;;;;;;;208.18;195.88;;;10.30;99.90;;;;;;5000394;28;20064;-69
2021/03/13 12:27:04;;;;;;;99.13;93.55;;;10.40;99.90;;;;;;5007147;28;20050;-69
2021/03/13 12:29:31;;;;;;;99.05;93.43;;;10.30;99.90;;;;;;5002148;28;20052;-69
2021/03/13 12:31:59;;;;;;;115.43;109.20;;;10.00;99.90;;;;;;5000387;28;20070;-69
2021/03/13 12:34:25;;;;;;;245.95;230.60;;;9.70;99.90;;;;;;5001133;28;20072;-69
2021/03/13 12:36:51;;;;;;;221.75;208.07;;;9.40;99.90;;;;;;5003749;28;20362;-68
2021/03/13 12:39:18;;;;;;;155.93;147.57;;;8.80;99.90;;;;;;5002357;28;20050;-68
2021/03/13 12:41:46;;;;;;;94.05;89.63;;;8.10;99.90;;;;;;5000015;28;20122;-69
2021/03/13 12:44:13;;;;;;;62.42;59.45;;;7.50;99.90;;;;;;5000289;28;20164;-69
2021/03/13 12:46:59;;;;;;;327.70;307.75;;;7.20;99.90;;;;;;4999381;28;20049;-69